McCarran, Nevada
Current Conditions -  °F | °C
As of 2:55 AM on Sunday 26 Oct 2014 (Local Time) from KRNO Reporting Station
Scattered Clouds Scattered Clouds  
Wind Chill: 45°   Ceiling: Unl
Heat Index: 45°   Visibility: 10mi
Dew Point: 30°   Wind: 0mph
Humidity: 56%   Direction: NA
Pressure: 30.1"   Gusts: NA
Location:  39.5403°N, 119.672°W
Report Text: KRNO 260955Z 00000KT 10SM SCT070 07/M01 A3010 RMK AO2 SLP175 T00721011
Loading
Personal Weather Stations






























Interactive Weather Map
Tropical Storm Tracking
New forecast layout! Learn more

10-Day Weather Forecast

Advertisements
Track Severe Weather on mobile